Dades de l'estació automàtica Sant Pere Pescador
Resum diari
21:30 TU| Temperatura mitjana | 18.1 °C | |
|---|---|---|
| Temperatura màxima | 22.7 °C | 9:08 TU |
| Temperatura mínima | 14.0 °C | 5:08 TU |
| Humitat relativa mitjana | 87% | |
| Precipitació acumulada | 0.0 mm | |
| Ratxa màxima del vent (10 m) | 34.6 km/h - 194º | 14:11 TU |
| Pressió atmosfèrica mitjana | 1011.9 hPa | |
| Irradiació solar global | 16.3 MJ/m2 | |
El tram horari està expressat en Temps Universal (TU). Cal sumar una hora en horari d'hivern i dues en horari d'estiu per passar a l'hora oficial.
Sant Pere Pescador
| Municipi | Sant Pere Pescador |
|---|---|
| Comarca | Alt Empordà |
| Altitud | 3 m |
| Data alta | 01.05.1989 |
| Estat actual | Operativa |
| Període TU |
TM °C |
TX °C |
TN °C |
HRM % |
PPT mm |
VVM (10 m) km/h |
DVM (10 m) graus |
VVX (10 m) km/h |
PM hPa |
RS W/m2 |
|---|---|---|---|---|---|---|---|---|---|---|
| 00:00 - 00:30 | 15.2 | 15.6 | 15.0 | 100 | 0.0 | 4.0 | 212 | 6.5 | 1014.2 | 0 |
| 00:30 - 01:00 | 15.2 | 15.3 | 15.0 | 100 | 0.0 | 4.0 | 212 | 7.2 | 1014.0 | 0 |
| 01:00 - 01:30 | 15.4 | 15.5 | 15.3 | 100 | 0.0 | 2.2 | 224 | 5.0 | 1013.8 | 0 |
| 01:30 - 02:00 | 15.5 | 15.5 | 15.4 | 100 | 0.0 | 2.9 | 193 | 4.7 | 1013.8 | 0 |
| 02:00 - 02:30 | 15.5 | 15.5 | 15.3 | 100 | 0.0 | 4.3 | 184 | 7.9 | 1013.7 | 0 |
| 02:30 - 03:00 | 15.0 | 15.3 | 14.7 | 100 | 0.0 | 6.8 | 181 | 9.7 | 1013.5 | 0 |
| 03:00 - 03:30 | 14.5 | 14.7 | 14.4 | 100 | 0.0 | 7.2 | 175 | 10.1 | 1013.3 | 0 |
| 03:30 - 04:00 | 14.8 | 14.9 | 14.5 | 100 | 0.0 | 7.9 | 162 | 14.4 | 1013.0 | 0 |
| 04:00 - 04:30 | 14.7 | 14.9 | 14.5 | 100 | 0.0 | 5.0 | 192 | 10.1 | 1012.8 | 0 |
| 04:30 - 05:00 | 14.5 | 14.7 | 14.1 | 100 | 0.0 | 4.0 | 226 | 8.3 | 1012.6 | 6 |
| 05:00 - 05:30 | 14.2 | 14.5 | 14.0 | 100 | 0.0 | 4.3 | 227 | 8.6 | 1012.6 | 52 |
| 05:30 - 06:00 | 14.8 | 14.8 | 14.5 | 100 | 0.0 | 4.0 | 233 | 8.6 | 1012.6 | 57 |
| 06:00 - 06:30 | 15.1 | 15.9 | 14.8 | 99 | 0.0 | 1.1 | 192 | 9.0 | 1012.5 | 133 |
| 06:30 - 07:00 | 17.2 | 18.1 | 16.0 | 85 | 0.0 | 10.1 | 197 | 19.4 | 1012.3 | 310 |
| 07:00 - 07:30 | 18.7 | 19.1 | 18.1 | 77 | 0.0 | 9.4 | 198 | 18.4 | 1012.3 | 410 |
| 07:30 - 08:00 | 19.6 | 20.3 | 19.1 | 74 | 0.0 | 11.9 | 186 | 21.2 | 1012.3 | 509 |
| 08:00 - 08:30 | 20.9 | 21.4 | 20.3 | 67 | 0.0 | 11.2 | 180 | 21.6 | 1012.2 | 588 |
| 08:30 - 09:00 | 21.8 | 22.2 | 21.0 | 61 | 0.0 | 12.2 | 174 | 20.2 | 1011.9 | 671 |
| 09:00 - 09:30 | 21.9 | 22.7 | 20.7 | 65 | 0.0 | 13.0 | 151 | 27.7 | 1011.8 | 527 |
| 09:30 - 10:00 | 21.2 | 21.8 | 20.8 | 72 | 0.0 | 13.3 | 142 | 25.9 | 1012.0 | 523 |
| 10:00 - 10:30 | 21.5 | 22.0 | 21.2 | 72 | 0.0 | 14.0 | 137 | 27.4 | 1012.1 | 627 |
| 10:30 - 11:00 | 20.9 | 21.6 | 20.5 | 77 | 0.0 | 13.0 | 128 | 23.0 | 1012.3 | 514 |
| 11:00 - 11:30 | 20.9 | 21.5 | 20.6 | 79 | 0.0 | 14.0 | 123 | 25.2 | 1012.1 | 543 |
| 11:30 - 12:00 | 21.3 | 22.6 | 20.1 | 76 | 0.0 | 13.7 | 134 | 30.6 | 1011.7 | 718 |
| 12:00 - 12:30 | 21.9 | 22.6 | 21.4 | 68 | 0.0 | 15.5 | 169 | 26.3 | 1011.6 | 468 |
| 12:30 - 13:00 | 22.0 | 22.5 | 21.4 | 66 | 0.0 | 14.0 | 163 | 24.5 | 1011.3 | 429 |
| 13:00 - 13:30 | 21.6 | 21.8 | 21.4 | 69 | 0.0 | 17.3 | 163 | 31.7 | 1010.9 | 346 |
| 13:30 - 14:00 | 21.7 | 22.6 | 21.2 | 70 | 0.0 | 17.6 | 172 | 28.8 | 1010.9 | 467 |
| 14:00 - 14:30 | 21.2 | 22.2 | 20.5 | 71 | 0.0 | 19.1 | 182 | 34.6 | 1010.7 | 282 |
| 14:30 - 15:00 | 20.1 | 20.5 | 19.6 | 76 | 0.0 | 18.4 | 191 | 32.8 | 1010.8 | 144 |
| 15:00 - 15:30 | 19.1 | 19.6 | 18.6 | 83 | 0.0 | 14.8 | 212 | 31.0 | 1010.9 | 92 |
| 15:30 - 16:00 | 18.9 | 19.2 | 18.7 | 88 | 0.0 | 13.3 | 208 | 28.8 | 1011.0 | 170 |
| 16:00 - 16:30 | 19.0 | 19.3 | 18.9 | 86 | 0.0 | 16.2 | 196 | 30.2 | 1011.1 | 140 |
| 16:30 - 17:00 | 19.0 | 19.1 | 18.9 | 85 | 0.0 | 16.6 | 197 | 30.6 | 1010.8 | 118 |
| 17:00 - 17:30 | 18.9 | 19.1 | 18.5 | 84 | 0.0 | 11.2 | 194 | 22.0 | 1010.5 | 67 |
| 17:30 - 18:00 | 18.3 | 18.5 | 18.0 | 88 | 0.0 | 12.6 | 187 | 21.6 | 1010.4 | 118 |
| 18:00 - 18:30 | 17.7 | 18.0 | 17.5 | 93 | 0.0 | 6.8 | 194 | 16.6 | 1010.3 | 28 |
| 18:30 - 19:00 | 17.3 | 17.5 | 17.1 | 96 | 0.0 | 6.1 | 194 | 11.2 | 1010.4 | 4 |
| 19:00 - 19:30 | 16.9 | 17.1 | 16.8 | 97 | 0.0 | 5.4 | 204 | 10.4 | 1010.7 | 0 |
| 19:30 - 20:00 | 16.9 | 16.9 | 16.8 | 97 | 0.0 | 2.2 | 275 | 5.0 | 1011.3 | 0 |
| 20:00 - 20:30 | 16.6 | 16.8 | 16.4 | 99 | 0.0 | 2.2 | 96 | 5.4 | 1011.7 | 0 |
| 20:30 - 21:00 | 16.1 | 16.4 | 15.9 | 100 | 0.0 | 5.4 | 93 | 6.8 | 1012.0 | 0 |
| 21:00 - 21:30 | 16.2 | 16.4 | 15.9 | 100 | 0.0 | 5.0 | 131 | 8.3 | 1012.2 | 0 |
| 21:30 - 22:00 | 16.5 | 16.6 | 16.4 | 100 | 0.0 | 5.0 | 144 | 8.3 | 1011.9 | 0 |
Les dades en taronja només han passat un control de qualitat automàtic. Resta pendent la seva validació definitiva.